Time;durP1;ratioP1;P1;durP2;ratioP2;P2;SDS_P1;SDS_P2;PMS_P1;PMS_P2;Temp;Humidity;BMP_temperature;BMP_pressure;BME280_temperature;BME280_humidity;BME280_pressure;Samples;Min_cycle;Max_cycle;Signal;HPM_P1;HPM_P2
2021/04/13 00:03:00;;;;;;;0.60;0.60;;;7.50;83.10;;;;;;6256234;28;20986;-58
2021/04/13 00:06:03;;;;;;;0.50;0.50;;;7.40;83.10;;;;;;6249422;28;20478;-58
2021/04/13 00:09:12;;;;;;;0.70;0.70;;;7.50;82.80;;;;;;6249124;28;20463;-58
2021/04/13 00:12:17;;;;;;;0.50;0.50;;;7.50;82.30;;;;;;6246940;28;20470;-59
2021/04/13 00:15:26;;;;;;;0.93;0.93;;;7.50;81.70;;;;;;6244988;28;20494;-59
2021/04/13 00:18:30;;;;;;;0.50;0.50;;;7.60;82.30;;;;;;6250645;28;20463;-58
2021/04/13 00:21:38;;;;;;;1.23;0.70;;;7.60;81.20;;;;;;6253829;28;20478;-58
2021/04/13 00:24:42;;;;;;;0.80;0.80;;;7.60;80.20;;;;;;6260901;28;20777;-59
2021/04/13 00:27:48;;;;;;;0.70;0.50;;;7.60;80.10;;;;;;6252586;28;20982;-58
2021/04/13 00:30:52;;;;;;;0.50;0.50;;;7.60;84.10;;;;;;6250806;28;20471;-61
2021/04/13 00:33:56;;;;;;;0.60;0.60;;;7.60;83.60;;;;;;6251662;28;20470;-58
2021/04/13 00:37:23;;;;;;;0.83;0.60;;;7.50;81.40;;;;;;6252066;28;20481;-58
2021/04/13 00:40:28;;;;;;;0.70;0.60;;;7.40;80.90;;;;;;6251256;28;20479;-57
2021/04/13 00:43:30;;;;;;;0.50;0.50;;;7.40;82.10;;;;;;6251748;28;20467;-56
2021/04/13 00:46:37;;;;;;;0.80;0.60;;;7.40;80.90;;;;;;6253246;28;20781;-57
2021/04/13 00:49:48;;;;;;;0.60;0.60;;;7.40;80.70;;;;;;6253524;28;20796;-57
2021/04/13 00:52:54;;;;;;;1.43;0.60;;;7.40;81.10;;;;;;6249816;28;20479;-57
2021/04/13 00:55:58;;;;;;;0.60;0.60;;;7.30;80.00;;;;;;6251987;28;20479;-57
2021/04/13 00:59:05;;;;;;;0.80;0.80;;;7.30;80.80;;;;;;6252481;28;20557;-58
2021/04/13 01:02:11;;;;;;;0.70;0.70;;;7.30;79.90;;;;;;6251842;28;20796;-57
2021/04/13 01:05:18;;;;;;;0.70;0.70;;;7.20;79.80;;;;;;6252028;28;20841;-57
2021/04/13 01:08:29;;;;;;;0.67;0.67;;;7.30;79.90;;;;;;6252160;28;20454;-57
2021/04/13 01:11:37;;;;;;;0.80;0.63;;;7.30;80.90;;;;;;6252306;28;20605;-58
2021/04/13 01:14:41;;;;;;;0.97;0.60;;;7.30;81.70;;;;;;6252531;28;20506;-57
2021/04/13 01:17:44;;;;;;;0.80;0.80;;;7.30;81.00;;;;;;6243602;28;20475;-57
2021/04/13 01:20:55;;;;;;;1.00;0.90;;;7.20;82.10;;;;;;6251806;28;20531;-57
2021/04/13 01:24:07;;;;;;;0.73;0.73;;;7.20;81.30;;;;;;6252021;28;20486;-57
2021/04/13 01:27:12;;;;;;;0.80;0.80;;;7.20;82.80;;;;;;6251986;28;20489;-57
2021/04/13 01:30:16;;;;;;;0.80;0.80;;;7.20;83.00;;;;;;6250931;28;20471;-57
2021/04/13 01:33:21;;;;;;;0.87;0.87;;;7.10;84.10;;;;;;6251555;28;20482;-56
2021/04/13 01:36:27;;;;;;;0.80;0.80;;;7.10;84.60;;;;;;6251774;28;20467;-57
2021/04/13 01:39:40;;;;;;;2.03;1.10;;;7.00;85.00;;;;;;6251992;28;20466;-56
2021/04/13 01:42:43;;;;;;;1.77;0.70;;;7.00;86.10;;;;;;6251744;28;20498;-57
2021/04/13 01:45:49;;;;;;;0.77;0.77;;;6.90;85.80;;;;;;6251606;28;20521;-57
2021/04/13 01:48:51;;;;;;;0.80;0.80;;;6.90;86.30;;;;;;6251656;28;20471;-57
2021/04/13 01:51:53;;;;;;;0.77;0.77;;;6.90;87.10;;;;;;6251437;28;20525;-57
2021/04/13 01:54:58;;;;;;;1.30;0.80;;;6.80;86.70;;;;;;6251400;28;20467;-57
2021/04/13 01:58:11;;;;;;;0.73;0.73;;;6.70;87.80;;;;;;6251360;28;20986;-57
2021/04/13 02:01:19;;;;;;;0.70;0.70;;;6.70;86.90;;;;;;6251325;28;20475;-58
2021/04/13 02:04:26;;;;;;;0.80;0.80;;;6.70;86.50;;;;;;6251030;28;20475;-58
2021/04/13 02:07:45;;;;;;;1.67;0.83;;;6.70;86.70;;;;;;6251092;28;20468;-57
2021/04/13 02:10:56;;;;;;;0.77;0.73;;;6.70;87.40;;;;;;6250967;28;20468;-57
2021/04/13 02:14:02;;;;;;;0.70;0.70;;;6.70;86.80;;;;;;6250848;28;20483;-57
2021/04/13 02:17:08;;;;;;;0.87;0.80;;;6.70;86.50;;;;;;6251116;28;20447;-58
2021/04/13 02:20:14;;;;;;;0.70;0.70;;;6.60;86.80;;;;;;6246724;28;20478;-58
2021/04/13 02:23:24;;;;;;;0.80;0.80;;;6.60;87.00;;;;;;6250733;28;20479;-58
2021/04/13 02:26:28;;;;;;;0.80;0.77;;;6.70;86.10;;;;;;6250987;28;21300;-58
2021/04/13 02:29:34;;;;;;;1.33;0.83;;;6.70;86.30;;;;;;6250707;28;20463;-57
2021/04/13 02:32:44;;;;;;;0.93;0.60;;;6.70;85.80;;;;;;6250329;28;20525;-57
2021/04/13 02:35:47;;;;;;;0.90;0.90;;;6.70;85.70;;;;;;6250331;28;20483;-57
2021/04/13 02:38:53;;;;;;;0.80;0.80;;;6.60;86.50;;;;;;6250273;28;20625;-57
2021/04/13 02:42:00;;;;;;;1.23;0.80;;;6.80;87.00;;;;;;6250251;28;20482;-57
2021/04/13 02:45:07;;;;;;;1.17;1.10;;;6.60;85.50;;;;;;6250122;28;20494;-58
2021/04/13 02:48:14;;;;;;;0.90;0.87;;;6.70;85.70;;;;;;6250428;28;20482;-58
2021/04/13 02:51:18;;;;;;;0.67;0.60;;;6.70;85.90;;;;;;6249859;28;20485;-57
2021/04/13 02:54:23;;;;;;;1.10;1.00;;;6.70;85.30;;;;;;6250253;28;20487;-57
2021/04/13 02:57:29;;;;;;;0.70;0.70;;;6.70;85.00;;;;;;6249881;28;20486;-57
2021/04/13 03:00:36;;;;;;;0.93;0.80;;;6.70;86.20;;;;;;6250152;28;20478;-57
2021/04/13 03:03:42;;;;;;;1.13;0.73;;;6.60;84.70;;;;;;6249576;28;21009;-58
2021/04/13 03:06:47;;;;;;;0.80;0.70;;;6.70;84.90;;;;;;6249679;28;20489;-56
2021/04/13 03:09:52;;;;;;;0.90;0.90;;;6.70;84.60;;;;;;6249704;28;20966;-57
2021/04/13 03:12:57;;;;;;;0.80;0.70;;;6.70;84.10;;;;;;6249431;28;20533;-56
2021/04/13 03:16:00;;;;;;;0.90;0.90;;;6.70;83.90;;;;;;6249687;28;20467;-58
2021/04/13 03:19:06;;;;;;;0.80;0.80;;;6.70;84.40;;;;;;6249350;28;20490;-57
2021/04/13 03:22:09;;;;;;;0.90;0.90;;;6.80;82.80;;;;;;6249309;28;20485;-58
2021/04/13 03:25:14;;;;;;;0.67;0.67;;;6.80;82.20;;;;;;6249303;28;20482;-57
2021/04/13 03:28:22;;;;;;;2.00;0.80;;;6.80;81.30;;;;;;6240156;28;20490;-57
2021/04/13 03:31:31;;;;;;;1.40;1.20;;;6.90;83.10;;;;;;6249371;28;20470;-57
2021/04/13 03:34:34;;;;;;;0.70;0.70;;;6.90;82.80;;;;;;6248989;28;20482;-57
2021/04/13 03:37:43;;;;;;;0.93;0.93;;;7.00;81.00;;;;;;6249212;28;20533;-57
2021/04/13 03:40:47;;;;;;;0.80;0.80;;;7.00;80.10;;;;;;6249136;28;20463;-57
2021/04/13 03:43:57;;;;;;;1.03;0.80;;;7.00;79.60;;;;;;6248938;28;20471;-58
2021/04/13 03:46:59;;;;;;;0.90;0.90;;;7.10;78.70;;;;;;6248973;28;20483;-56
2021/04/13 03:50:06;;;;;;;1.03;0.93;;;7.10;78.60;;;;;;6248569;28;20477;-56
2021/04/13 03:53:12;;;;;;;1.13;0.80;;;7.20;77.40;;;;;;6249117;28;20459;-58
2021/04/13 03:56:16;;;;;;;1.30;1.20;;;7.20;76.10;;;;;;6250224;28;20423;-59
2021/04/13 03:59:22;;;;;;;1.47;1.10;;;7.20;75.40;;;;;;6249791;28;20756;-57
2021/04/13 04:02:24;;;;;;;1.97;1.00;;;7.30;75.80;;;;;;6250069;28;20472;-58
2021/04/13 04:05:42;;;;;;;1.20;1.10;;;7.30;75.70;;;;;;6249769;28;20470;-56
2021/04/13 04:08:47;;;;;;;1.30;1.20;;;7.20;74.00;;;;;;6250024;28;20482;-56
2021/04/13 04:11:50;;;;;;;1.13;1.10;;;7.30;72.90;;;;;;6250068;28;20459;-57
2021/04/13 04:14:59;;;;;;;1.70;1.37;;;7.40;74.40;;;;;;6249661;28;20907;-57
2021/04/13 04:18:02;;;;;;;3.77;1.17;;;7.40;72.90;;;;;;6250114;28;20460;-57
2021/04/13 04:21:28;;;;;;;1.80;0.90;;;7.30;72.90;;;;;;6249657;28;20612;-57
2021/04/13 04:24:33;;;;;;;1.00;1.00;;;7.30;71.70;;;;;;6249688;28;20466;-57
2021/04/13 04:27:37;;;;;;;0.90;0.90;;;7.20;70.30;;;;;;6249615;28;20478;-56
2021/04/13 04:30:41;;;;;;;1.10;1.10;;;7.20;71.30;;;;;;6238286;28;20471;-57
2021/04/13 04:33:43;;;;;;;2.10;1.20;;;7.20;71.00;;;;;;6249080;28;20540;-56
2021/04/13 04:36:47;;;;;;;1.10;1.00;;;7.20;71.90;;;;;;6249066;28;20478;-56
2021/04/13 04:40:18;;;;;;;0.97;0.97;;;7.20;72.10;;;;;;6249321;28;20462;-57
2021/04/13 04:43:40;;;;;;;1.57;1.20;;;7.30;71.80;;;;;;6249817;28;20486;-57
2021/04/13 04:46:43;;;;;;;1.27;1.17;;;7.30;71.10;;;;;;6249332;28;20481;-57
2021/04/13 04:49:47;;;;;;;1.37;1.27;;;7.20;70.00;;;;;;6249327;28;20974;-56
2021/04/13 04:52:49;;;;;;;1.30;1.20;;;7.20;70.70;;;;;;6249211;28;20482;-58
2021/04/13 04:55:52;;;;;;;1.13;1.10;;;7.10;69.60;;;;;;6249422;28;20470;-57
2021/04/13 04:58:55;;;;;;;1.10;1.00;;;7.10;69.50;;;;;;6248952;28;20471;-57
2021/04/13 05:01:58;;;;;;;1.17;1.17;;;7.00;69.10;;;;;;6249118;28;20971;-57
2021/04/13 05:05:00;;;;;;;1.57;1.10;;;7.00;69.40;;;;;;6250337;28;20795;-57
2021/04/13 05:08:02;;;;;;;1.50;1.33;;;7.00;70.00;;;;;;6253582;28;20475;-56
2021/04/13 05:11:05;;;;;;;1.50;1.40;;;6.90;69.40;;;;;;6253062;28;20927;-57
2021/04/13 05:14:07;;;;;;;1.30;1.20;;;6.90;69.50;;;;;;6253770;28;20469;-57
2021/04/13 05:17:10;;;;;;;1.33;1.33;;;6.80;70.10;;;;;;6253379;28;20447;-58
2021/04/13 05:20:13;;;;;;;2.63;1.70;;;6.80;70.30;;;;;;6253602;28;20585;-57
2021/04/13 05:23:15;;;;;;;1.27;1.20;;;6.70;69.10;;;;;;6253547;28;20487;-56
2021/04/13 05:26:18;;;;;;;1.73;1.00;;;6.80;70.40;;;;;;6253123;28;20518;-58
2021/04/13 05:29:20;;;;;;;1.33;1.23;;;6.80;70.70;;;;;;6253415;28;20454;-58
2021/04/13 05:32:23;;;;;;;1.27;1.17;;;6.80;68.50;;;;;;6248463;28;20572;-55
2021/04/13 05:35:25;;;;;;;2.43;1.47;;;6.80;68.10;;;;;;6252860;28;20459;-56
2021/04/13 05:38:30;;;;;;;2.33;1.70;;;6.80;69.10;;;;;;6253235;28;20467;-57
2021/04/13 05:41:34;;;;;;;4.50;2.37;;;6.80;69.70;;;;;;6253155;28;20477;-56
2021/04/13 05:44:39;;;;;;;1.00;1.00;;;6.90;69.10;;;;;;6252143;28;20482;-57
2021/04/13 05:47:47;;;;;;;1.57;1.47;;;7.00;68.60;;;;;;6252680;28;20477;-58
2021/04/13 05:50:49;;;;;;;2.87;1.90;;;6.90;68.30;;;;;;6252487;28;20971;-58
2021/04/13 05:53:51;;;;;;;1.40;1.30;;;7.00;67.60;;;;;;6252533;28;20483;-58
2021/04/13 05:56:54;;;;;;;1.53;1.33;;;7.00;67.80;;;;;;6252640;28;20459;-57
2021/04/13 05:59:58;;;;;;;1.40;1.30;;;7.00;67.30;;;;;;6252702;28;20477;-58
2021/04/13 06:03:01;;;;;;;2.83;1.43;;;7.10;66.80;;;;;;6252881;28;20483;-57
2021/04/13 06:06:03;;;;;;;1.50;1.40;;;7.10;68.10;;;;;;6252188;28;20942;-58
2021/04/13 06:09:06;;;;;;;2.10;1.73;;;7.10;68.30;;;;;;6252526;28;20479;-57
2021/04/13 06:12:10;;;;;;;1.83;1.60;;;7.10;68.80;;;;;;6274221;28;20458;-57
2021/04/13 06:15:15;;;;;;;1.60;1.50;;;7.10;67.90;;;;;;6276828;28;20470;-62
2021/04/13 06:18:18;;;;;;;1.37;1.27;;;7.00;68.60;;;;;;6275814;28;20497;-57
2021/04/13 06:21:20;;;;;;;1.90;1.60;;;7.10;67.90;;;;;;6276947;28;20549;-57
2021/04/13 06:24:22;;;;;;;1.73;1.63;;;7.20;68.00;;;;;;6274886;28;20986;-57
2021/04/13 06:27:24;;;;;;;2.70;2.10;;;7.20;67.80;;;;;;6274542;28;20485;-58
2021/04/13 06:30:28;;;;;;;1.80;1.70;;;7.20;67.50;;;;;;6274781;28;20476;-57
2021/04/13 06:33:35;;;;;;;2.03;1.93;;;7.20;66.90;;;;;;6274047;28;20470;-57
2021/04/13 06:36:38;;;;;;;2.23;1.90;;;7.20;67.40;;;;;;6274146;28;20489;-58
2021/04/13 06:39:41;;;;;;;2.77;2.57;;;7.10;67.70;;;;;;6275828;28;20528;-56
2021/04/13 06:42:59;;;;;;;5.03;2.07;;;7.30;68.60;;;;;;6276182;28;20465;-56
2021/04/13 06:46:10;;;;;;;2.10;1.70;;;7.30;68.90;;;;;;6275650;28;20482;-56
2021/04/13 06:49:26;;;;;;;2.60;1.50;;;7.40;67.30;;;;;;6275897;28;20485;-57
2021/04/13 06:52:36;;;;;;;3.10;2.10;;;7.30;67.40;;;;;;6270492;28;20471;-56
2021/04/13 06:56:20;;;;;;;2.57;2.07;;;7.30;67.60;;;;;;6248684;28;20541;-57
2021/04/13 06:59:58;;;;;;;2.20;2.10;;;7.30;67.60;;;;;;6231265;28;20593;-58
2021/04/13 07:03:12;;;;;;;2.30;2.13;;;7.30;67.60;;;;;;6232635;28;20486;-56
2021/04/13 07:06:25;;;;;;;2.00;1.80;;;7.30;67.70;;;;;;6248173;28;20475;-61
2021/04/13 07:09:35;;;;;;;3.80;2.20;;;7.10;68.80;;;;;;6248831;28;20474;-59
2021/04/13 07:12:44;;;;;;;2.60;2.20;;;7.10;69.20;;;;;;6250729;28;20471;-56
2021/04/13 07:15:50;;;;;;;3.37;1.90;;;7.10;72.70;;;;;;6250963;28;20471;-57
2021/04/13 07:19:01;;;;;;;5.93;2.43;;;6.90;73.90;;;;;;6250312;28;20466;-57
2021/04/13 07:22:07;;;;;;;4.37;2.40;;;6.90;76.80;;;;;;6250905;28;20801;-58
2021/04/13 07:25:15;;;;;;;2.60;1.97;;;6.80;78.90;;;;;;6250245;28;20466;-58
2021/04/13 07:28:23;;;;;;;3.27;2.17;;;6.70;79.10;;;;;;6249535;28;20474;-58
2021/04/13 07:31:33;;;;;;;3.03;2.40;;;6.60;79.40;;;;;;6250290;28;20913;-57
2021/04/13 07:34:37;;;;;;;3.07;2.60;;;6.50;81.20;;;;;;6249623;28;20483;-57
2021/04/13 07:37:42;;;;;;;2.93;2.40;;;6.30;82.30;;;;;;6250161;28;20794;-57
2021/04/13 07:40:49;;;;;;;3.10;2.10;;;6.10;84.20;;;;;;6249955;28;21009;-58
2021/04/13 07:44:00;;;;;;;3.50;3.00;;;6.10;86.50;;;;;;6239268;28;20475;-59
2021/04/13 07:47:26;;;;;;;2.17;2.07;;;6.10;86.10;;;;;;6248621;28;20463;-58
2021/04/13 07:50:39;;;;;;;2.80;2.23;;;6.00;87.60;;;;;;6246817;28;20455;-58
2021/04/13 07:54:04;;;;;;;5.37;2.63;;;6.00;89.30;;;;;;6249494;28;20475;-58
2021/04/13 07:57:14;;;;;;;5.57;2.43;;;6.00;90.00;;;;;;6247010;28;20521;-57
2021/04/13 08:00:20;;;;;;;4.47;2.40;;;5.80;90.40;;;;;;6249343;28;20463;-58
2021/04/13 08:03:31;;;;;;;3.83;2.90;;;5.80;91.50;;;;;;6246518;28;21001;-61
2021/04/13 08:06:54;;;;;;;2.50;2.30;;;5.90;92.40;;;;;;6249280;28;20463;-58
2021/04/13 08:10:14;;;;;;;3.20;2.90;;;6.00;92.30;;;;;;6247411;28;20471;-59
2021/04/13 08:13:29;;;;;;;2.90;2.70;;;6.00;92.10;;;;;;6225299;28;20487;-57
2021/04/13 08:16:33;;;;;;;4.93;2.83;;;5.90;92.90;;;;;;6225108;28;20975;-57
2021/04/13 08:19:35;;;;;;;3.20;2.90;;;6.10;93.40;;;;;;6237616;28;20471;-56
2021/04/13 08:22:51;;;;;;;5.90;2.73;;;6.20;93.30;;;;;;6241706;28;20802;-57
2021/04/13 08:25:57;;;;;;;3.03;2.53;;;6.20;93.60;;;;;;6234295;28;20487;-60
2021/04/13 08:29:08;;;;;;;7.80;5.97;;;6.20;93.90;;;;;;6249085;28;20550;-58
2021/04/13 08:36:00;;;;;;;5.17;3.10;;;6.30;94.10;;;;;;6224579;28;20476;-58
2021/04/13 08:39:08;;;;;;;3.90;2.43;;;6.40;94.10;;;;;;6237299;28;20559;-58
2021/04/13 08:42:26;;;;;;;2.73;2.53;;;6.30;94.50;;;;;;6254071;28;20475;-58
2021/04/13 08:45:32;;;;;;;3.10;2.60;;;6.20;94.80;;;;;;6249071;28;20548;-57
2021/04/13 08:48:44;;;;;;;8.17;3.60;;;6.10;95.30;;;;;;6253861;28;20474;-59
2021/04/13 08:51:49;;;;;;;3.20;2.87;;;6.10;95.90;;;;;;6253718;28;20470;-58
2021/04/13 08:55:06;;;;;;;3.10;2.80;;;6.10;96.00;;;;;;6232418;28;20489;-57
2021/04/13 08:58:27;;;;;;;2.83;2.40;;;6.00;96.50;;;;;;6253538;28;20819;-59
2021/04/13 09:01:34;;;;;;;3.07;2.50;;;5.90;96.90;;;;;;6253518;28;20485;-57
2021/04/13 09:04:37;;;;;;;2.70;2.50;;;6.00;97.60;;;;;;6253235;28;20483;-59
2021/04/13 09:07:53;;;;;;;3.00;2.80;;;6.10;97.40;;;;;;6253278;28;20489;-59
2021/04/13 09:11:16;;;;;;;3.50;3.20;;;6.20;97.50;;;;;;6253036;28;20475;-62
2021/04/13 09:14:35;;;;;;;3.40;3.10;;;6.30;97.10;;;;;;6253143;28;20451;-60
2021/04/13 09:17:43;;;;;;;2.27;2.13;;;6.30;96.90;;;;;;6253179;28;20525;-59
2021/04/13 09:20:48;;;;;;;3.07;2.83;;;6.30;96.90;;;;;;6253137;28;20459;-60
2021/04/13 09:23:57;;;;;;;3.00;2.80;;;6.30;97.20;;;;;;6231863;28;20488;-59
2021/04/13 09:27:34;;;;;;;3.07;2.80;;;6.30;96.70;;;;;;6228621;28;20471;-60
2021/04/13 09:30:39;;;;;;;3.73;2.90;;;6.30;96.90;;;;;;6228433;28;20482;-59
2021/04/13 09:33:43;;;;;;;3.30;3.10;;;6.40;97.30;;;;;;6227884;28;20994;-58
2021/04/13 09:37:07;;;;;;;4.20;2.57;;;6.50;97.60;;;;;;6228459;28;20464;-55
2021/04/13 09:40:27;;;;;;;3.20;2.90;;;6.60;97.20;;;;;;6228432;28;20491;-54
2021/04/13 09:43:45;;;;;;;6.00;3.73;;;6.70;97.10;;;;;;6228202;28;20484;-55
2021/04/13 09:47:03;;;;;;;2.83;2.63;;;6.70;97.00;;;;;;6235559;28;20472;-56
2021/04/13 09:50:20;;;;;;;7.50;4.80;;;6.70;97.00;;;;;;6250302;28;20568;-55
2021/04/13 09:53:53;;;;;;;7.37;4.20;;;6.70;96.80;;;;;;6261861;28;20455;-59
2021/04/13 09:57:33;;;;;;;6.17;3.00;;;6.60;96.90;;;;;;6275154;28;20466;-58
2021/04/13 10:00:52;;;;;;;1.97;1.87;;;6.40;97.00;;;;;;6276956;28;20481;-58
2021/04/13 10:04:20;;;;;;;3.67;3.00;;;6.30;97.60;;;;;;6276870;28;20485;-58
2021/04/13 10:07:33;;;;;;;3.43;2.80;;;6.30;98.10;;;;;;6268091;28;20508;-59
2021/04/13 10:10:37;;;;;;;3.17;2.37;;;6.30;98.30;;;;;;6250473;28;20472;-59
2021/04/13 10:14:15;;;;;;;4.43;2.90;;;6.20;98.50;;;;;;6251190;28;20467;-58
2021/04/13 10:17:32;;;;;;;2.67;2.47;;;6.10;98.30;;;;;;6224261;28;20465;-58
2021/04/13 10:20:44;;;;;;;3.37;2.60;;;6.10;98.70;;;;;;6250103;28;20463;-60
2021/04/13 10:24:26;;;;;;;3.03;1.90;;;6.10;99.10;;;;;;6249449;28;20482;-58
2021/04/13 10:28:06;;;;;;;2.53;2.33;;;6.00;99.10;;;;;;6243908;28;20464;-57
2021/04/13 10:31:44;;;;;;;3.00;2.47;;;6.00;99.60;;;;;;6250752;28;20574;-57
2021/04/13 10:35:30;;;;;;;5.83;2.60;;;5.80;99.60;;;;;;6243959;28;20960;-57
2021/04/13 10:39:06;;;;;;;3.20;2.90;;;5.70;99.90;;;;;;6250841;28;20486;-57
2021/04/13 10:42:49;;;;;;;2.73;2.10;;;5.70;99.90;;;;;;6250803;28;20475;-59
2021/04/13 10:46:28;;;;;;;2.30;1.80;;;5.70;99.90;;;;;;6251262;28;20467;-58
2021/04/13 10:50:06;;;;;;;7.80;3.33;;;5.50;99.90;;;;;;6225447;28;20542;-57
2021/04/13 10:53:22;;;;;;;10.03;3.43;;;5.50;99.90;;;;;;6253674;28;20477;-59
2021/04/13 10:56:48;;;;;;;8.20;2.80;;;5.50;99.90;;;;;;6275497;28;20415;-60
2021/04/13 11:00:11;;;;;;;1.90;1.70;;;5.60;99.90;;;;;;6272039;28;20477;-58
2021/04/13 11:03:56;;;;;;;4.77;2.17;;;5.60;99.90;;;;;;6232989;28;20491;-58
2021/04/13 11:07:37;;;;;;;5.13;2.33;;;5.60;99.90;;;;;;6223937;28;20502;-57
2021/04/13 11:11:25;;;;;;;2.87;2.27;;;5.80;99.90;;;;;;6218122;28;20486;-57
2021/04/13 11:15:20;;;;;;;8.17;4.03;;;6.00;99.90;;;;;;6223702;28;20475;-58
2021/04/13 11:18:50;;;;;;;14.60;5.90;;;6.10;99.90;;;;;;6237035;28;20888;-58
2021/04/13 11:22:25;;;;;;;2.93;2.73;;;6.10;99.90;;;;;;6250375;28;20810;-58
2021/04/13 11:26:00;;;;;;;2.33;2.00;;;6.20;99.90;;;;;;6250355;28;20510;-59
2021/04/13 11:29:25;;;;;;;2.30;2.10;;;6.30;99.80;;;;;;6239885;28;20532;-58
2021/04/13 11:33:05;;;;;;;6.93;2.50;;;6.30;99.20;;;;;;6249688;28;20478;-59
2021/04/13 11:36:15;;;;;;;3.57;2.23;;;6.30;99.60;;;;;;6224342;28;20514;-58
2021/04/13 11:39:25;;;;;;;1.93;1.83;;;6.40;99.90;;;;;;6226038;28;20467;-59
2021/04/13 11:42:30;;;;;;;2.70;2.10;;;6.50;99.20;;;;;;6225284;28;20463;-59
2021/04/13 11:45:44;;;;;;;3.20;2.53;;;6.40;98.80;;;;;;6225270;28;20472;-58
2021/04/13 11:48:53;;;;;;;3.23;2.90;;;6.40;99.10;;;;;;6249010;28;20812;-58
2021/04/13 11:51:58;;;;;;;2.43;2.23;;;6.40;99.30;;;;;;6249851;28;20849;-58
2021/04/13 11:55:24;;;;;;;3.60;2.50;;;6.50;99.10;;;;;;6273410;28;20474;-59
2021/04/13 11:58:33;;;;;;;2.30;2.10;;;6.40;98.70;;;;;;6268912;28;20555;-59
2021/04/13 12:01:37;;;;;;;2.40;2.20;;;6.40;99.20;;;;;;6266930;28;21040;-59
2021/04/13 12:04:45;;;;;;;2.33;2.13;;;6.50;99.50;;;;;;6248288;28;20482;-60
2021/04/13 12:07:49;;;;;;;2.10;2.00;;;6.50;98.90;;;;;;6248607;28;20620;-58
2021/04/13 12:10:56;;;;;;;2.80;2.20;;;6.50;99.90;;;;;;6248832;28;20478;-58
2021/04/13 12:14:30;;;;;;;8.13;3.67;;;6.50;99.10;;;;;;6248509;28;20463;-61
2021/04/13 12:17:36;;;;;;;2.57;1.93;;;6.60;99.40;;;;;;6252612;28;20470;-58
2021/04/13 12:20:42;;;;;;;2.53;2.33;;;6.70;98.90;;;;;;6252172;28;20470;-59
2021/04/13 12:23:50;;;;;;;2.47;2.27;;;6.80;98.10;;;;;;6231552;28;20463;-59
2021/04/13 12:26:52;;;;;;;2.77;2.43;;;6.70;98.40;;;;;;6228064;28;20460;-58
2021/04/13 12:30:34;;;;;;;2.80;2.60;;;6.70;98.60;;;;;;6228760;28;21049;-58
2021/04/13 12:34:02;;;;;;;2.93;2.10;;;6.70;98.20;;;;;;6229762;28;20558;-58
2021/04/13 12:37:05;;;;;;;3.33;2.50;;;6.60;98.30;;;;;;6229869;28;20478;-57
2021/04/13 12:40:30;;;;;;;2.70;2.50;;;6.50;98.20;;;;;;6228731;28;20459;-58
2021/04/13 12:43:42;;;;;;;4.80;2.70;;;6.40;98.90;;;;;;6250015;28;20471;-58
2021/04/13 12:46:47;;;;;;;3.70;3.40;;;6.40;98.90;;;;;;6253809;28;21027;-59
2021/04/13 12:49:49;;;;;;;3.40;2.50;;;6.40;98.80;;;;;;6247371;28;21301;-59
2021/04/13 12:52:52;;;;;;;9.03;2.73;;;6.40;98.90;;;;;;6244336;28;20489;-59
2021/04/13 12:56:04;;;;;;;3.20;2.23;;;6.40;98.30;;;;;;6253763;28;20801;-58
2021/04/13 12:59:09;;;;;;;4.60;2.23;;;6.50;99.60;;;;;;6235886;28;20944;-59
2021/04/13 13:02:29;;;;;;;2.63;2.43;;;6.70;98.60;;;;;;6228679;28;20749;-60
2021/04/13 13:05:33;;;;;;;6.33;2.67;;;6.60;97.40;;;;;;6229144;28;20460;-58
2021/04/13 13:08:59;;;;;;;2.63;2.43;;;6.50;96.90;;;;;;6253658;28;20564;-58
2021/04/13 13:12:09;;;;;;;2.60;2.23;;;6.30;96.90;;;;;;6253740;28;20477;-57
2021/04/13 13:15:15;;;;;;;4.33;2.40;;;6.30;97.20;;;;;;6253139;28;20471;-59
2021/04/13 13:18:22;;;;;;;3.27;2.23;;;6.40;97.10;;;;;;6253810;28;20576;-58
2021/04/13 13:21:28;;;;;;;2.60;2.50;;;6.40;97.20;;;;;;6251838;28;20475;-59
2021/04/13 13:24:32;;;;;;;2.47;2.30;;;6.40;97.00;;;;;;6244585;28;20482;-59
2021/04/13 13:27:34;;;;;;;2.10;2.00;;;6.50;96.90;;;;;;6253106;28;20480;-58
2021/04/13 13:30:39;;;;;;;2.53;2.30;;;6.50;96.30;;;;;;6252659;28;20471;-58
2021/04/13 13:33:45;;;;;;;2.03;1.93;;;6.50;96.00;;;;;;6252610;28;20479;-58
2021/04/13 13:36:50;;;;;;;3.57;2.47;;;6.60;95.80;;;;;;6253071;28;20471;-60
2021/04/13 13:39:55;;;;;;;2.50;2.10;;;6.60;95.60;;;;;;6252855;28;20859;-59
2021/04/13 13:42:58;;;;;;;2.30;2.10;;;6.60;95.00;;;;;;6252726;28;20471;-58
2021/04/13 13:46:19;;;;;;;2.97;2.50;;;6.60;95.10;;;;;;6251861;28;20560;-58
2021/04/13 13:49:28;;;;;;;2.37;2.27;;;6.50;94.90;;;;;;6251647;28;20471;-64
2021/04/13 13:52:39;;;;;;;3.27;3.07;;;6.60;95.00;;;;;;6254914;28;20963;-58
2021/04/13 13:55:41;;;;;;;3.10;2.40;;;6.80;96.50;;;;;;6277256;28;20485;-57
2021/04/13 13:58:43;;;;;;;3.23;3.03;;;7.10;97.70;;;;;;6276808;28;20485;-58
2021/04/13 14:01:59;;;;;;;2.90;2.40;;;7.30;95.90;;;;;;6276342;28;20474;-58
2021/04/13 14:05:20;;;;;;;2.63;2.43;;;7.40;94.40;;;;;;6276635;28;20525;-58
2021/04/13 14:08:26;;;;;;;3.20;2.90;;;7.40;92.50;;;;;;6276961;28;20588;-57
2021/04/13 14:11:33;;;;;;;2.70;2.50;;;7.50;92.90;;;;;;6276831;28;20914;-63
2021/04/13 14:14:39;;;;;;;2.33;2.13;;;7.70;91.50;;;;;;6276783;28;20535;-58
2021/04/13 14:17:42;;;;;;;2.50;2.03;;;7.70;91.70;;;;;;6276912;28;20472;-59
2021/04/13 14:21:10;;;;;;;2.17;1.97;;;7.80;90.60;;;;;;6276579;28;20469;-59
2021/04/13 14:24:21;;;;;;;2.57;2.37;;;7.80;90.60;;;;;;6252019;28;20475;-59
2021/04/13 14:27:26;;;;;;;2.00;1.90;;;7.90;90.60;;;;;;6252022;28;20478;-59
2021/04/13 14:30:29;;;;;;;2.20;2.10;;;8.00;90.40;;;;;;6251874;28;20906;-58
2021/04/13 14:33:32;;;;;;;1.93;1.83;;;8.20;90.10;;;;;;6251638;28;20479;-60
2021/04/13 14:36:35;;;;;;;3.50;1.93;;;8.30;89.70;;;;;;6251348;28;20490;-59
2021/04/13 14:39:39;;;;;;;1.70;1.60;;;8.30;87.30;;;;;;6251463;28;20479;-59
2021/04/13 14:42:41;;;;;;;2.00;1.90;;;8.30;87.30;;;;;;6251533;28;20474;-60
2021/04/13 14:45:44;;;;;;;2.23;2.13;;;8.20;86.70;;;;;;6251264;28;20800;-59
2021/04/13 14:48:47;;;;;;;1.97;1.87;;;8.10;85.50;;;;;;6250682;28;20474;-58
2021/04/13 14:51:49;;;;;;;2.10;2.00;;;8.10;86.90;;;;;;6250433;28;20479;-56
2021/04/13 14:54:52;;;;;;;2.63;2.17;;;8.10;86.30;;;;;;6273170;28;20491;-58
2021/04/13 14:58:00;;;;;;;4.20;2.00;;;8.20;86.60;;;;;;6275732;28;20807;-58
2021/04/13 15:01:02;;;;;;;3.70;1.97;;;8.20;86.40;;;;;;6275515;28;20489;-57
2021/04/13 15:04:05;;;;;;;2.00;1.80;;;8.20;85.20;;;;;;6275694;28;20583;-58
2021/04/13 15:07:09;;;;;;;3.40;2.33;;;8.20;83.00;;;;;;6275630;28;20470;-57
2021/04/13 15:10:14;;;;;;;2.10;2.00;;;8.10;85.40;;;;;;6266400;28;20486;-58
2021/04/13 15:13:16;;;;;;;1.77;1.67;;;8.00;84.80;;;;;;6275431;28;20486;-58
2021/04/13 15:16:18;;;;;;;2.47;2.20;;;8.10;84.10;;;;;;6275309;28;20474;-58
2021/04/13 15:19:22;;;;;;;1.90;1.73;;;8.20;82.80;;;;;;6275456;28;21036;-58
2021/04/13 15:22:26;;;;;;;2.70;2.00;;;8.10;83.20;;;;;;6275379;28;20481;-58
2021/04/13 15:25:29;;;;;;;2.77;1.90;;;8.00;82.30;;;;;;6275292;28;20493;-58
2021/04/13 15:28:32;;;;;;;2.77;1.73;;;8.00;82.20;;;;;;6274983;28;20474;-58
2021/04/13 15:31:34;;;;;;;2.43;1.43;;;7.90;82.90;;;;;;6274885;28;20477;-58
2021/04/13 15:34:44;;;;;;;2.10;1.33;;;7.80;80.60;;;;;;6274702;28;20474;-59
2021/04/13 15:37:50;;;;;;;1.60;1.50;;;7.70;80.50;;;;;;6275107;28;20481;-58
2021/04/13 15:40:57;;;;;;;2.20;1.90;;;7.60;81.80;;;;;;6274923;28;20476;-59
2021/04/13 15:44:11;;;;;;;1.40;1.33;;;7.70;82.30;;;;;;6274859;28;20474;-58
2021/04/13 15:47:17;;;;;;;1.50;1.40;;;7.80;80.40;;;;;;6263284;28;20435;-59
2021/04/13 15:50:21;;;;;;;1.60;1.50;;;7.80;80.30;;;;;;6238765;28;20448;-59
2021/04/13 15:53:23;;;;;;;2.00;1.60;;;7.70;79.40;;;;;;6245280;28;20458;-60
2021/04/13 15:56:27;;;;;;;1.70;1.40;;;7.50;80.00;;;;;;6253506;28;20447;-59
2021/04/13 15:59:29;;;;;;;2.30;1.47;;;7.50;80.00;;;;;;6231844;28;20463;-60
2021/04/13 16:02:31;;;;;;;2.37;1.33;;;7.40;80.10;;;;;;6249583;28;20466;-60
2021/04/13 16:05:35;;;;;;;2.73;1.30;;;7.40;81.10;;;;;;6230511;28;20574;-59
2021/04/13 16:08:37;;;;;;;1.63;1.10;;;7.30;80.20;;;;;;6225528;28;20543;-59
2021/04/13 16:11:40;;;;;;;1.33;1.23;;;7.40;80.30;;;;;;6220562;28;20478;-59
2021/04/13 16:14:49;;;;;;;1.60;1.50;;;7.30;80.40;;;;;;6249274;28;20472;-60
2021/04/13 16:17:52;;;;;;;2.03;1.93;;;7.30;80.70;;;;;;6249271;28;20489;-59
2021/04/13 16:20:59;;;;;;;1.63;1.53;;;7.30;80.00;;;;;;6249432;28;20552;-58
2021/04/13 16:24:02;;;;;;;1.10;1.00;;;7.30;80.50;;;;;;6249166;28;20479;-59
2021/04/13 16:27:06;;;;;;;1.33;1.23;;;7.30;80.00;;;;;;6249178;28;20470;-58
2021/04/13 16:30:10;;;;;;;2.23;2.13;;;7.30;80.70;;;;;;6238631;28;20499;-59
2021/04/13 16:33:12;;;;;;;1.70;1.60;;;7.30;80.90;;;;;;6224671;28;20498;-58
2021/04/13 16:36:16;;;;;;;1.67;1.47;;;7.30;80.70;;;;;;6225354;28;20475;-58
2021/04/13 16:39:32;;;;;;;2.30;1.63;;;7.30;80.90;;;;;;6225090;28;20475;-59
2021/04/13 16:42:41;;;;;;;1.80;1.70;;;7.20;81.00;;;;;;6224741;28;20483;-59
2021/04/13 16:45:48;;;;;;;2.60;1.37;;;7.20;79.80;;;;;;6224519;28;20991;-60
2021/04/13 16:48:55;;;;;;;1.57;1.40;;;7.20;80.50;;;;;;6248461;28;20977;-58